Decoded Metar for LFSN (NANCY ESSEY in FRANCE) (IATA:ENC) | Meteo·Mobile Aviation Weather
aviador You're here:

LFSN Decoded Metar

NANCY ESSEY in FRANCE
Report Time2018-08-21 15:30:00
UTC Time2018-08-21 16:06:09
Flight Rules vfr VFR
Wind050° at 05 kt
W.Decomp.*RWY 03: 4.7 kt HW 1.7 kt RCW
W.Rank050° ranks 4
Current wind is below 050° avg. (6.0)
Visibility9999 m
Phenomena:N/A
Clouds:N/A
Expected CloudBase > 5,600 ft AGL from Temp-Dew spread
CeilingNone
Temp30°C (ISA +16)
Dew Point16°C (43% RH)
Heat Index30.1°C
QNH1018 hPa
Density Alt2,667 ft
Elevation712 ft
Report Wrong Elevation
Raw Report
LFSN 211530Z AUTO 05005KT 330V090 CAVOK 30/16 Q1018=

Extra information for LFSN:More info

Metar Taf Metar & Taf Last 4 Metars F.Rules Stats Wind Profile Meteogram Temp Stats Airport Information Weather charts Add Link Nearby VenuesMetar ALERT Operation Metar Decoded Social comments